Details From KMSY - Louis Armstrong New Orleans Intl
To MMCZ - Cozumel Intl
Flight Number -
Tags Generated
Created
Modified
Stats Distance 597 nm / 1,105 km
Max Altitude 0 ft / 0 m
Waypoints 4
Social Downloads 2
Likes 0
Share VATSIM

Download

Looking for another format? Having issues loading an existing format? Contact us
Advertisement - Login to hide

Notes

Generated

Route

KMSY GPTRO CZM32 MMCZ

ID Type Via Altitude Latitude Longitude Leg Dist Tot Dist Heading (true) Name
O KMSY APT - 0 ft / 0 m 29.99177˚ -90.25724˚ - 0 nm - Louis Armstrong New Orleans Intl
GPTRO FIX - 0 ft / 0 m 25.33333˚ -88.66667˚ 292 nm 292 nm 163° / 164° -
CZM32 FIX - 0 ft / 0 m 20.66552˚ -87.02088˚ 294 nm 586 nm 162° / 162° -
O MMCZ APT - 0 ft / 0 m 20.52011˚ -86.93997˚ 9 nm 596 nm 152° / 153° -

Altitude Profile

Advertisement - Login to hide

Weather


0- 5 10 15 20 25 30 35+ Temperature / ° C

Clouds and Precipitation
Forecast for 2017-12-18 00:00 UTC. Updated 41 minutes ago

Ground ~20,000 ft ~40,000 ft Winds

KMSY

Details ICAO KMSY (MSY)
Name Louis Armstrong New Orleans Intl
Region United States
Timezone America/Chicago (UTC-6.0)
Stats Elevation 3 ft / 1 m (AMSL)
Location 29.993349° -90.257406°
Runways 2
Magnetic Variation 0.733° W

METAR

KMSY 172353Z 15006KT 6SM BR FEW005 BKN039 OVC050 20/20 A3010 RMK AO2 SLP196 60027 T02000200 10206 20200 53001

Decode

TAF

TAF KMSY 172340Z 1800/1906 15004KT 4SM BR BKN005 FM180400 17004KT 1/2SM FG BKN003 FM181500 16004KT 1SM SHRA BR BKN005 FM181800 17005KT P6SM BKN008 OVC030 PROB30 1818/1819 3/4SM -SHRA FM181900 17005KT P6SM BKN008 OVC025 PROB30 1819/1824 4SM -SHRA OVC003 FM190000 VRB03KT P6SM BKN005 BKN008

Decode

Departure Runways

ID Width Length Bearing (true) Bearing (mag) Surface Threshold Offset Overrun Length
01 150 ft / 46 m 7,021 ft / 2,140 m 15.41° 16.14° Concrete 0 ft / 0 m 600 ft / 183 m
10 150 ft / 46 m 10,090 ft / 3,075 m 105.55° 106.28° Concrete 0 ft / 0 m 400 ft / 122 m
19 150 ft / 46 m 7,021 ft / 2,140 m 195.41° 196.14° Concrete 0 ft / 0 m 600 ft / 183 m
28 150 ft / 46 m 10,090 ft / 3,075 m 285.57° 286.30° Concrete 305 ft / 93 m 249 ft / 76 m

MMCZ

Details ICAO MMCZ (CZM)
Name Cozumel Intl
Region Mexico
Timezone America/Cancun (UTC-5.0)
Stats Elevation 15 ft / 5 m (AMSL)
Location 20.522845° -86.928142°
Runways 2
Magnetic Variation 1.778° W

METAR

Not found

TAF

TAF MMCZ 172325Z 1800/1906 11005KT P6SM SCT015 BKN100 FM181600 12015KT P6SM BKN015 BKN300 FM190200 10012KT P6SM SCT015 SCT300

Decode

Destination Runways

ID Width Length Bearing (true) Bearing (mag) Surface Threshold Offset Overrun Length
05 148 ft / 45 m 10,172 ft / 3,101 m 55.07° 56.85° Asphalt 2,530 ft / 771 m 0 ft / 0 m
11 148 ft / 45 m 8,866 ft / 2,702 m 115.78° 117.56° Asphalt 656 ft / 200 m 0 ft / 0 m
23 148 ft / 45 m 10,172 ft / 3,101 m 235.08° 236.86° Asphalt 0 ft / 0 m 190 ft / 58 m
29 148 ft / 45 m 8,866 ft / 2,702 m 295.79° 297.57° Asphalt 0 ft / 0 m 210 ft / 64 m